createdAt,value
2017-09-29T00:01:56.168Z,29.58
2017-09-29T00:04:25.271Z,25.08
2017-09-29T00:06:53.954Z,24.75
2017-09-29T00:09:23.388Z,18.92
2017-09-29T00:11:51.870Z,18.33
2017-09-29T00:14:20.731Z,25.00
2017-09-29T00:16:49.115Z,24.63
2017-09-29T00:19:17.515Z,20.35
2017-09-29T00:21:45.920Z,19.12
2017-09-29T00:24:14.303Z,28.50
2017-09-29T00:26:43.407Z,17.77
2017-09-29T00:29:11.786Z,18.87
2017-09-29T00:31:40.168Z,24.65
2017-09-29T00:34:08.635Z,25.55
2017-09-29T00:36:37.861Z,18.35
2017-09-29T00:39:06.244Z,27.52
2017-09-29T00:41:34.668Z,27.45
2017-09-29T00:44:03.709Z,29.73
2017-09-29T00:46:32.171Z,23.55
2017-09-29T00:49:00.544Z,28.27
2017-09-29T00:51:28.939Z,28.48
2017-09-29T00:53:57.384Z,21.55
2017-09-29T00:56:26.536Z,22.30
2017-09-29T00:58:54.984Z,28.90
2017-09-29T01:01:23.375Z,30.60
2017-09-29T01:03:51.750Z,29.35
2017-09-29T01:06:20.171Z,28.40
2017-09-29T01:08:48.553Z,33.53
2017-09-29T01:11:17.112Z,23.60
2017-09-29T01:13:45.491Z,28.08
2017-09-29T01:16:13.891Z,25.90
2017-09-29T01:18:42.318Z,33.05
2017-09-29T01:21:10.699Z,30.45
2017-09-29T01:23:39.155Z,32.75
2017-09-29T01:26:08.303Z,19.87
2017-09-29T01:28:36.698Z,24.45
2017-09-29T01:31:05.111Z,31.55
2017-09-29T01:33:34.278Z,37.92
2017-09-29T01:36:02.739Z,28.15
2017-09-29T01:38:31.135Z,25.50
2017-09-29T01:40:59.523Z,27.67
2017-09-29T01:43:27.929Z,24.85
2017-09-29T01:45:57.112Z,22.70
2017-09-29T01:48:25.602Z,24.23
2017-09-29T01:50:54.758Z,22.83
2017-09-29T01:53:23.158Z,27.75
2017-09-29T01:55:51.562Z,34.65
2017-09-29T01:58:20.875Z,25.37
2017-09-29T02:00:49.494Z,30.58
2017-09-29T02:03:17.903Z,23.38
2017-09-29T02:05:46.297Z,24.02
2017-09-29T02:08:15.483Z,22.23
2017-09-29T02:10:43.905Z,25.45
2017-09-29T02:13:12.505Z,31.55
2017-09-29T02:15:40.932Z,27.30
2017-09-29T02:18:10.134Z,22.42
2017-09-29T02:20:39.318Z,24.90
2017-09-29T02:23:07.711Z,27.35
2017-09-29T02:25:36.907Z,19.10
2017-09-29T02:28:06.107Z,23.73
2017-09-29T02:30:35.270Z,22.13
2017-09-29T02:33:03.691Z,24.85
2017-09-29T02:35:32.855Z,29.12
2017-09-29T02:38:01.517Z,20.58
2017-09-29T02:40:29.932Z,27.25
2017-09-29T02:42:58.323Z,27.90
2017-09-29T02:45:27.503Z,23.85
2017-09-29T02:47:55.899Z,19.62
2017-09-29T02:50:25.251Z,29.80
2017-09-29T02:52:53.650Z,22.83
2017-09-29T02:55:22.036Z,26.65
2017-09-29T02:57:53.931Z,26.92
2017-09-29T03:00:28.247Z,18.95
2017-09-29T03:03:01.619Z,19.05
2017-09-29T03:05:35.717Z,19.25
2017-09-29T03:08:04.947Z,22.73
2017-09-29T03:10:34.659Z,15.77
2017-09-29T03:13:04.508Z,21.00
2017-09-29T03:15:32.906Z,24.85
2017-09-29T03:18:02.056Z,15.98
2017-09-29T03:20:31.245Z,17.23
2017-09-29T03:23:00.279Z,14.45
2017-09-29T03:25:29.734Z,29.02
2017-09-29T03:27:59.414Z,16.30
2017-09-29T03:30:28.290Z,15.48
2017-09-29T03:32:57.070Z,14.87
2017-09-29T03:35:25.478Z,18.87
2017-09-29T03:37:53.928Z,18.83
2017-09-29T03:40:22.746Z,18.40
2017-09-29T03:42:51.913Z,23.70
2017-09-29T03:45:20.328Z,18.17
2017-09-29T03:47:48.747Z,19.75
2017-09-29T03:50:23.510Z,18.95
2017-09-29T03:52:55.620Z,16.67
2017-09-29T03:55:32.087Z,19.40
2017-09-29T03:58:03.519Z,20.05
2017-09-29T04:00:31.967Z,20.08
2017-09-29T04:03:00.375Z,23.40
2017-09-29T04:05:28.780Z,23.45
2017-09-29T04:07:57.237Z,26.60
2017-09-29T04:10:25.889Z,24.95
2017-09-29T04:12:54.350Z,16.17
2017-09-29T04:15:22.751Z,25.35
2017-09-29T04:17:51.188Z,22.13
2017-09-29T04:20:19.609Z,22.05
2017-09-29T04:22:48.098Z,16.23
2017-09-29T04:25:16.572Z,20.95
2017-09-29T04:27:45.013Z,33.97
2017-09-29T04:30:13.465Z,20.80
2017-09-29T04:32:41.901Z,17.12
2017-09-29T04:35:10.282Z,16.05
2017-09-29T04:37:38.659Z,20.88
2017-09-29T04:40:07.142Z,20.85
2017-09-29T04:42:35.543Z,18.33
2017-09-29T04:45:03.934Z,20.35
2017-09-29T04:47:32.378Z,15.55
2017-09-29T04:50:00.759Z,23.80
2017-09-29T04:52:29.170Z,18.65
2017-09-29T04:54:58.536Z,17.98
2017-09-29T04:57:26.930Z,28.92
2017-09-29T04:59:55.311Z,16.33
2017-09-29T05:02:23.729Z,14.57
2017-09-29T05:04:52.889Z,15.25
2017-09-29T05:07:21.271Z,20.05
2017-09-29T05:09:49.785Z,17.02
2017-09-29T05:12:18.180Z,19.10
2017-09-29T05:14:46.595Z,18.00
2017-09-29T05:17:15.027Z,18.25
2017-09-29T05:19:44.172Z,16.55
2017-09-29T05:22:12.546Z,14.15
2017-09-29T05:24:40.954Z,13.75
2017-09-29T05:27:09.349Z,15.38
2017-09-29T05:29:38.505Z,13.32
2017-09-29T05:32:06.927Z,11.32
2017-09-29T05:34:36.205Z,17.90
2017-09-29T05:37:05.371Z,21.17
2017-09-29T05:39:33.799Z,24.02
2017-09-29T05:42:02.984Z,15.15
2017-09-29T05:44:31.363Z,14.00
2017-09-29T05:47:00.004Z,14.07
2017-09-29T05:49:28.390Z,13.32
2017-09-29T05:51:56.776Z,19.20
2017-09-29T05:54:25.187Z,18.65
2017-09-29T05:56:54.339Z,21.75
2017-09-29T05:59:22.723Z,21.70
2017-09-29T06:01:51.155Z,25.85
2017-09-29T06:04:20.334Z,18.83
2017-09-29T06:06:48.723Z,41.42
2017-09-29T06:09:17.914Z,20.98
2017-09-29T06:11:46.367Z,25.20
2017-09-29T06:14:14.742Z,24.52
2017-09-29T06:16:43.156Z,26.70
2017-09-29T06:19:12.316Z,14.90
2017-09-29T06:21:40.700Z,17.80
2017-09-29T06:24:09.158Z,26.12
2017-09-29T06:26:38.279Z,18.55
2017-09-29T06:29:06.661Z,24.63
2017-09-29T06:31:35.080Z,22.15
2017-09-29T06:34:03.464Z,25.57
2017-09-29T06:36:31.848Z,36.10
2017-09-29T06:39:00.267Z,29.57
2017-09-29T06:41:28.650Z,17.43
2017-09-29T06:43:57.041Z,15.43
2017-09-29T06:46:25.463Z,25.23
2017-09-29T06:48:53.844Z,24.60
2017-09-29T06:51:22.251Z,22.80
2017-09-29T06:53:50.675Z,13.87
2017-09-29T06:56:19.823Z,21.90
2017-09-29T06:58:48.207Z,24.03
2017-09-29T07:01:16.628Z,15.77
2017-09-29T07:03:45.778Z,11.93
2017-09-29T07:06:14.159Z,17.33
2017-09-29T07:08:42.585Z,14.50
2017-09-29T07:11:11.734Z,19.03
2017-09-29T07:13:40.134Z,12.97
2017-09-29T07:16:09.311Z,16.90
2017-09-29T07:18:37.692Z,14.37
2017-09-29T07:21:06.088Z,12.83
2017-09-29T07:23:34.502Z,14.60
2017-09-29T07:26:14.816Z,13.50
2017-09-29T07:29:07.539Z,24.23
2017-09-29T07:31:57.210Z,23.38
2017-09-29T07:34:42.068Z,31.67
2017-09-29T07:37:30.559Z,13.30
2017-09-29T07:40:17.719Z,10.80
2017-09-29T07:42:47.223Z,7.30
2017-09-29T07:45:15.612Z,10.90
2017-09-29T07:47:44.322Z,11.77
2017-09-29T07:50:12.704Z,9.60
2017-09-29T07:52:41.088Z,9.23
2017-09-29T07:55:09.498Z,13.90
2017-09-29T07:57:41.483Z,10.20
2017-09-29T08:00:11.989Z,12.20
2017-09-29T08:02:42.777Z,12.90
2017-09-29T08:05:16.465Z,16.07
2017-09-29T08:08:04.519Z,11.70
2017-09-29T08:10:41.532Z,14.10
2017-09-29T08:13:11.145Z,11.23
2017-09-29T08:15:40.076Z,14.03
2017-09-29T08:18:08.696Z,18.20
2017-09-29T08:20:37.397Z,11.57
2017-09-29T08:23:06.595Z,7.67
2017-09-29T08:25:34.968Z,8.97
2017-09-29T08:28:03.534Z,10.73
2017-09-29T08:30:31.908Z,9.43
2017-09-29T08:33:00.283Z,18.97
2017-09-29T08:35:28.687Z,17.10
2017-09-29T08:37:57.385Z,11.40
2017-09-29T08:40:26.037Z,10.13
2017-09-29T08:42:54.416Z,18.47
2017-09-29T08:45:22.807Z,11.47
2017-09-29T08:47:51.208Z,16.60
2017-09-29T08:50:19.591Z,10.20
2017-09-29T08:52:48.339Z,11.77
2017-09-29T08:55:16.714Z,9.83
2017-09-29T08:57:45.096Z,12.50
2017-09-29T09:00:13.563Z,15.90
2017-09-29T09:02:41.943Z,11.13
2017-09-29T09:05:10.367Z,11.87
2017-09-29T09:07:38.739Z,12.60
2017-09-29T09:10:07.119Z,9.60
2017-09-29T09:12:35.525Z,13.90
2017-09-29T09:15:04.669Z,11.47
2017-09-29T09:17:33.139Z,23.47
2017-09-29T09:20:01.515Z,9.70
2017-09-29T09:22:29.896Z,13.00
2017-09-29T09:24:58.291Z,10.67
2017-09-29T09:27:26.664Z,10.60
2017-09-29T09:29:55.102Z,14.40
2017-09-29T09:32:24.318Z,12.13
2017-09-29T09:34:52.699Z,12.07
2017-09-29T09:37:21.335Z,13.23
2017-09-29T09:39:49.844Z,14.37
2017-09-29T09:42:19.066Z,14.23
2017-09-29T09:44:47.455Z,14.50
2017-09-29T09:47:15.836Z,11.30
2017-09-29T09:49:44.231Z,11.17
2017-09-29T09:52:12.613Z,17.00
2017-09-29T09:54:41.278Z,9.00
2017-09-29T09:57:09.662Z,12.80
2017-09-29T09:59:38.046Z,7.70
2017-09-29T10:02:06.548Z,9.23
2017-09-29T10:04:34.927Z,7.73
2017-09-29T10:07:03.320Z,10.73
2017-09-29T10:09:31.726Z,15.23
2017-09-29T10:12:00.152Z,10.37
2017-09-29T10:14:31.361Z,13.50
2017-09-29T10:16:59.881Z,7.90
2017-09-29T10:19:28.262Z,14.37
2017-09-29T10:21:56.639Z,16.20
2017-09-29T10:24:25.058Z,11.10
2017-09-29T10:26:54.215Z,11.90
2017-09-29T10:29:22.591Z,16.07
2017-09-29T10:31:51.003Z,13.37
2017-09-29T10:34:20.162Z,14.97
2017-09-29T10:36:48.551Z,11.10
2017-09-29T10:39:17.036Z,9.53
2017-09-29T10:41:45.420Z,13.60
2017-09-29T10:44:13.807Z,16.27
2017-09-29T10:46:42.219Z,8.23
2017-09-29T10:49:10.600Z,14.57
2017-09-29T10:51:38.993Z,13.10
2017-09-29T10:54:07.408Z,12.13
2017-09-29T10:56:35.800Z,11.43
2017-09-29T10:59:04.959Z,11.40
2017-09-29T11:01:33.387Z,14.53
2017-09-29T11:04:02.536Z,19.23
2017-09-29T11:06:30.940Z,13.57
2017-09-29T11:08:59.388Z,11.70
2017-09-29T11:11:27.768Z,19.40
2017-09-29T11:13:56.147Z,23.97
2017-09-29T11:16:24.570Z,13.23
2017-09-29T11:18:52.953Z,14.63
2017-09-29T11:21:22.172Z,15.40
2017-09-29T11:23:50.587Z,17.93
2017-09-29T11:26:18.987Z,15.93
2017-09-29T11:28:47.385Z,13.87
2017-09-29T11:31:15.815Z,15.83
2017-09-29T11:33:44.349Z,16.63
2017-09-29T11:36:13.499Z,19.17
2017-09-29T11:38:41.928Z,18.20
2017-09-29T11:41:11.099Z,18.10
2017-09-29T11:43:39.492Z,18.13
2017-09-29T11:46:07.944Z,20.17
2017-09-29T11:48:36.339Z,20.87
2017-09-29T11:51:04.727Z,25.67
2017-09-29T11:53:33.147Z,24.50
2017-09-29T11:56:01.539Z,22.33
2017-09-29T11:58:29.920Z,22.87
2017-09-29T12:00:58.331Z,26.87
2017-09-29T12:03:26.723Z,22.93
2017-09-29T12:05:55.103Z,31.13
2017-09-29T12:08:23.778Z,23.70
2017-09-29T12:10:52.160Z,30.00
2017-09-29T12:13:20.536Z,26.43
2017-09-29T12:15:48.962Z,38.73
2017-09-29T12:18:17.344Z,32.77
2017-09-29T12:20:45.722Z,28.60
2017-09-29T12:23:14.128Z,27.10
2017-09-29T12:25:42.559Z,31.20
2017-09-29T12:28:11.732Z,24.40
2017-09-29T12:30:40.145Z,20.40
2017-09-29T12:33:08.535Z,35.27
2017-09-29T12:35:36.916Z,22.33
2017-09-29T12:38:05.331Z,18.70
2017-09-29T12:40:33.711Z,20.60
2017-09-29T12:43:02.092Z,19.80
2017-09-29T12:45:30.539Z,24.30
2017-09-29T12:47:58.918Z,28.17
2017-09-29T12:50:27.302Z,23.80
2017-09-29T12:52:55.719Z,22.30
2017-09-29T12:55:24.115Z,22.70
2017-09-29T12:57:53.278Z,20.97
2017-09-29T13:00:21.736Z,22.30
2017-09-29T13:02:50.130Z,25.43
2017-09-29T13:05:18.514Z,22.40
2017-09-29T13:07:46.926Z,22.10
2017-09-29T13:10:16.092Z,25.77
2017-09-29T13:12:44.493Z,26.80
2017-09-29T13:15:12.932Z,21.50
2017-09-29T13:17:41.327Z,25.70
2017-09-29T13:20:09.721Z,31.43
2017-09-29T13:22:38.147Z,34.50
2017-09-29T13:25:06.523Z,31.10
2017-09-29T13:27:34.899Z,27.20
2017-09-29T13:30:03.321Z,23.83
2017-09-29T13:32:32.476Z,26.30
2017-09-29T13:35:00.869Z,27.23
2017-09-29T13:37:29.543Z,41.80
2017-09-29T13:39:57.933Z,23.47
2017-09-29T13:42:26.322Z,28.07
2017-09-29T13:44:55.524Z,30.00
2017-09-29T13:47:23.921Z,23.47
2017-09-29T13:49:52.339Z,25.50
2017-09-29T13:52:20.759Z,24.90
2017-09-29T13:54:49.183Z,24.97
2017-09-29T13:57:18.335Z,29.63
2017-09-29T13:59:46.768Z,17.40
2017-09-29T14:02:15.924Z,19.87
2017-09-29T14:04:44.371Z,18.27
2017-09-29T14:07:12.800Z,18.10
2017-09-29T14:09:41.179Z,17.73
2017-09-29T14:12:09.566Z,19.03
2017-09-29T14:14:37.991Z,21.00
2017-09-29T14:17:06.388Z,28.63
2017-09-29T14:19:34.801Z,26.60
2017-09-29T14:22:03.993Z,38.93
2017-09-29T14:24:32.375Z,27.73
2017-09-29T14:27:00.875Z,39.97
2017-09-29T14:29:30.072Z,30.40
2017-09-29T14:31:58.463Z,32.57
2017-09-29T14:34:26.867Z,28.07
2017-09-29T14:36:55.288Z,35.03
2017-09-29T14:39:23.777Z,25.40
2017-09-29T14:41:53.032Z,39.43
2017-09-29T14:44:21.515Z,27.70
2017-09-29T14:46:49.909Z,28.73
2017-09-29T14:49:18.312Z,35.53
2017-09-29T14:51:47.790Z,30.30
2017-09-29T14:54:16.272Z,29.47
2017-09-29T14:56:44.712Z,34.83
2017-09-29T14:59:13.128Z,35.93
2017-09-29T15:01:41.540Z,30.23
2017-09-29T15:04:10.758Z,31.33
2017-09-29T15:06:39.203Z,29.73
2017-09-29T15:09:07.595Z,33.92
2017-09-29T15:11:36.771Z,33.72
2017-09-29T15:14:05.302Z,38.03
2017-09-29T15:16:33.814Z,35.83
2017-09-29T15:19:02.234Z,42.62
2017-09-29T15:21:31.584Z,38.40
2017-09-29T15:24:00.060Z,51.75
2017-09-29T15:26:28.519Z,43.47
2017-09-29T15:28:56.948Z,32.67
2017-09-29T15:31:25.410Z,42.17
2017-09-29T15:33:53.796Z,35.95
2017-09-29T15:36:22.260Z,39.17
2017-09-29T15:38:50.888Z,38.45
2017-09-29T15:41:19.280Z,38.22
2017-09-29T15:43:48.487Z,59.80
2017-09-29T15:46:17.009Z,46.60
2017-09-29T15:48:46.247Z,38.63
2017-09-29T15:51:14.731Z,35.25
2017-09-29T15:53:43.904Z,37.25
2017-09-29T15:56:12.325Z,43.80
2017-09-29T15:58:40.785Z,40.05
2017-09-29T16:01:10.691Z,45.92
2017-09-29T16:03:39.122Z,37.60
2017-09-29T16:06:07.778Z,36.80
2017-09-29T16:08:36.978Z,41.50
2017-09-29T16:11:06.221Z,36.13
2017-09-29T16:13:34.681Z,77.50
2017-09-29T16:16:03.063Z,65.35
2017-09-29T16:18:31.471Z,41.00
2017-09-29T16:20:59.899Z,38.45
2017-09-29T16:23:28.352Z,37.95
2017-09-29T16:25:56.915Z,38.85
2017-09-29T16:28:26.159Z,32.80
2017-09-29T16:30:54.543Z,45.55
2017-09-29T16:33:22.927Z,46.72
2017-09-29T16:35:51.395Z,47.95
2017-09-29T16:38:20.543Z,51.37
2017-09-29T16:40:48.932Z,43.05
2017-09-29T16:43:17.354Z,50.95
2017-09-29T16:45:45.816Z,38.42
2017-09-29T16:48:15.073Z,46.47
2017-09-29T16:50:43.521Z,40.53
2017-09-29T16:53:11.914Z,35.58
2017-09-29T16:55:40.517Z,41.63
2017-09-29T16:58:08.968Z,36.92
2017-09-29T17:00:37.358Z,44.22
2017-09-29T17:03:05.931Z,42.70
2017-09-29T17:05:34.434Z,39.00
2017-09-29T17:08:02.827Z,36.08
2017-09-29T17:10:31.211Z,38.65
2017-09-29T17:12:59.803Z,40.55
2017-09-29T17:15:28.202Z,41.22
2017-09-29T17:17:57.363Z,43.13
2017-09-29T17:20:25.779Z,40.22
2017-09-29T17:22:54.983Z,47.00
2017-09-29T17:25:24.147Z,42.42
2017-09-29T17:27:52.758Z,41.85
2017-09-29T17:30:21.928Z,46.22
2017-09-29T17:32:51.327Z,39.40
2017-09-29T17:35:20.115Z,43.28
2017-09-29T17:37:48.810Z,40.63
2017-09-29T17:40:17.466Z,43.55
2017-09-29T17:42:46.001Z,44.30
2017-09-29T17:45:15.164Z,44.50
2017-09-29T17:47:43.675Z,40.70
2017-09-29T17:50:12.862Z,42.28
2017-09-29T17:52:41.243Z,49.38
2017-09-29T17:55:10.409Z,61.78
2017-09-29T17:57:38.822Z,71.43
2017-09-29T18:00:07.976Z,69.22
2017-09-29T18:02:36.366Z,143.55
2017-09-29T18:05:04.787Z,45.38
2017-09-29T18:07:33.934Z,45.33
2017-09-29T18:10:02.342Z,45.15
2017-09-29T18:12:30.793Z,45.40
2017-09-29T18:14:59.172Z,41.95
2017-09-29T18:17:27.564Z,48.28
2017-09-29T18:19:56.846Z,56.33
2017-09-29T18:22:25.230Z,44.60
2017-09-29T18:24:53.611Z,43.55
2017-09-29T18:27:22.030Z,40.35
2017-09-29T18:29:51.195Z,44.92
2017-09-29T18:32:19.591Z,45.83
2017-09-29T18:34:48.041Z,39.38
2017-09-29T18:37:16.441Z,44.75
2017-09-29T18:39:44.873Z,48.87
2017-09-29T18:42:13.319Z,47.33
2017-09-29T18:44:50.871Z,43.42
2017-09-29T18:47:19.782Z,43.15
2017-09-29T18:49:48.175Z,45.92
2017-09-29T18:52:16.563Z,46.85
2017-09-29T18:54:45.762Z,43.33
2017-09-29T18:57:14.927Z,52.05
2017-09-29T18:59:43.315Z,43.80
2017-09-29T19:02:11.760Z,35.17
2017-09-29T19:04:40.158Z,45.63
2017-09-29T19:07:08.541Z,39.70
2017-09-29T19:09:37.212Z,106.75
2017-09-29T19:12:05.666Z,42.62
2017-09-29T19:14:34.054Z,42.03
2017-09-29T19:17:02.496Z,37.58
2017-09-29T19:19:31.652Z,38.20
2017-09-29T19:22:00.042Z,47.50
2017-09-29T19:24:28.464Z,50.60
2017-09-29T19:26:56.857Z,46.75
2017-09-29T19:29:25.241Z,39.95
2017-09-29T19:31:53.660Z,39.25
2017-09-29T19:34:22.047Z,37.13
2017-09-29T19:36:50.431Z,34.42
2017-09-29T19:39:18.875Z,48.30
2017-09-29T19:41:47.357Z,37.75
2017-09-29T19:44:15.757Z,38.20
2017-09-29T19:46:44.171Z,47.55
2017-09-29T19:49:13.333Z,47.60
2017-09-29T19:51:41.765Z,33.58
2017-09-29T19:54:10.583Z,39.13
2017-09-29T19:56:40.342Z,38.63
2017-09-29T19:59:09.548Z,51.42
2017-09-29T20:01:38.020Z,39.38
2017-09-29T20:04:07.158Z,40.35
2017-09-29T20:06:35.544Z,38.72
2017-09-29T20:09:03.986Z,35.47
2017-09-29T20:11:32.697Z,39.53
2017-09-29T20:14:01.110Z,41.20
2017-09-29T20:16:29.665Z,47.60
2017-09-29T20:18:58.079Z,68.03
2017-09-29T20:21:26.487Z,83.45
2017-09-29T20:23:56.020Z,90.97
2017-09-29T20:26:24.414Z,77.55
2017-09-29T20:28:52.802Z,124.95
2017-09-29T20:31:21.290Z,81.85
2017-09-29T20:33:49.698Z,62.90
2017-09-29T20:36:18.890Z,40.45
2017-09-29T20:38:48.235Z,45.58
2017-09-29T20:41:16.818Z,45.58
2017-09-29T20:43:45.284Z,50.50
2017-09-29T20:46:13.807Z,43.28
2017-09-29T20:48:42.206Z,44.47
2017-09-29T20:51:11.065Z,46.17
2017-09-29T20:53:39.583Z,46.30
2017-09-29T20:56:08.740Z,40.72
2017-09-29T20:58:37.707Z,43.75
2017-09-29T21:01:06.315Z,44.25
2017-09-29T21:03:34.859Z,40.67
2017-09-29T21:06:03.832Z,40.97
2017-09-29T21:08:32.632Z,46.65
2017-09-29T21:11:01.878Z,38.28
2017-09-29T21:13:30.307Z,38.70
2017-09-29T21:15:59.554Z,42.78
2017-09-29T21:18:28.755Z,34.17
2017-09-29T21:20:57.135Z,47.88
2017-09-29T21:23:25.565Z,49.40
2017-09-29T21:25:54.733Z,42.50
2017-09-29T21:28:23.115Z,46.60
2017-09-29T21:30:51.799Z,43.30
2017-09-29T21:33:20.179Z,46.78
2017-09-29T21:35:48.839Z,41.28
2017-09-29T21:38:17.314Z,44.03
2017-09-29T21:40:45.840Z,42.08
2017-09-29T21:43:14.991Z,39.75
2017-09-29T21:45:43.418Z,47.80
2017-09-29T21:48:12.565Z,39.70
2017-09-29T21:50:40.945Z,41.53
2017-09-29T21:53:09.387Z,53.35
2017-09-29T21:55:38.547Z,45.80
2017-09-29T21:58:06.978Z,46.30
2017-09-29T22:00:35.582Z,40.03
2017-09-29T22:03:03.967Z,42.42
2017-09-29T22:05:32.351Z,40.33
2017-09-29T22:08:00.760Z,38.15
2017-09-29T22:10:29.137Z,43.28
2017-09-29T22:12:58.303Z,40.95
2017-09-29T22:15:26.974Z,40.35
2017-09-29T22:17:55.367Z,45.75
2017-09-29T22:20:23.757Z,55.30
2017-09-29T22:22:52.183Z,47.72
2017-09-29T22:25:20.600Z,46.13
2017-09-29T22:27:49.774Z,44.85
2017-09-29T22:30:18.208Z,41.80
2017-09-29T22:32:46.593Z,46.65
2017-09-29T22:35:14.972Z,37.20
2017-09-29T22:37:43.605Z,35.40
2017-09-29T22:40:11.991Z,34.88
2017-09-29T22:42:40.367Z,40.33
2017-09-29T22:45:08.799Z,39.22
2017-09-29T22:47:37.958Z,40.58
2017-09-29T22:50:06.340Z,41.55
2017-09-29T22:52:34.755Z,47.65
2017-09-29T22:55:03.899Z,46.05
2017-09-29T22:57:32.275Z,41.75
2017-09-29T23:00:00.695Z,48.92
2017-09-29T23:02:29.081Z,46.78
2017-09-29T23:04:58.233Z,55.00
2017-09-29T23:07:26.643Z,53.87
2017-09-29T23:09:55.025Z,48.85
2017-09-29T23:12:23.412Z,45.88
2017-09-29T23:14:51.827Z,43.87
2017-09-29T23:17:20.207Z,39.72
2017-09-29T23:19:48.590Z,42.58
2017-09-29T23:22:17.003Z,41.63
2017-09-29T23:24:45.387Z,48.80
2017-09-29T23:27:13.767Z,50.00
2017-09-29T23:29:42.188Z,49.63
2017-09-29T23:32:10.590Z,54.22
2017-09-29T23:34:38.970Z,49.47
2017-09-29T23:37:07.410Z,44.67
2017-09-29T23:39:36.866Z,50.83
2017-09-29T23:42:05.242Z,41.40
2017-09-29T23:44:33.831Z,41.83
2017-09-29T23:47:02.207Z,43.80
2017-09-29T23:49:30.587Z,48.75
2017-09-29T23:51:59.032Z,50.30
2017-09-29T23:54:27.416Z,50.83
2017-09-29T23:56:55.794Z,49.88
2017-09-29T23:59:24.222Z,47.28
